Cuyahoga County Airport Cleveland US
ICAO: KCGF
IATA: CGF
Category: Medium
Scheduled Services: No

Elevation: 879 ft
TransAlt. 18000 ft.

Airport Communications:
CLEVELAND APP/DEP:125.35
CTAF:118.5
GND/CLNC DEL:121.85
COUNTY TWR:118.5
UNICOM:122.95

KCGF Zoom In..

Runways:

(A) RW 06 length 5102 ft width 100 ft
---- / hdg 57

(B) RW 24 length 5102 ft width 100 ft
ILS 111.10 / hdg 237

Location; KCGF
Day. 18 / Time. 19.45 Zulu
* Altimeter: 30.09
* Temperature: 24° c. 75.2°f.
* Wind from: 340° Speed 12 kn.
Dewpoint: 14° c.
Visibility: 20 Statute Miles.
Clouds: Few 3500 ft.

KCGF 181945Z 34012KT 20SM FEW035 24/14 A3009


Wind From 340°
Speed 12 kn.

 
 
jpsmedia.com for Web Design worldairports.se 2018   terms of use